createdAt,value
2023-09-22T00:01:14.297Z,16.3
2023-09-22T00:06:49.645Z,16.2
2023-09-22T00:12:26.743Z,16.3
2023-09-22T00:18:02.366Z,16.2
2023-09-22T00:23:38.013Z,16.2
2023-09-22T00:29:14.386Z,16.2
2023-09-22T00:34:49.622Z,16.2
2023-09-22T00:40:24.746Z,16.2
2023-09-22T00:46:01.282Z,16.2
2023-09-22T00:51:38.419Z,16.2
2023-09-22T00:57:14.007Z,16.1
2023-09-22T01:02:50.666Z,16.1
2023-09-22T01:08:28.057Z,16.1
2023-09-22T01:14:03.409Z,16.1
2023-09-22T01:19:40.578Z,16.1
2023-09-22T01:25:16.057Z,16.1
2023-09-22T01:30:51.357Z,16.1
2023-09-22T01:36:28.164Z,16.1
2023-09-22T01:42:04.302Z,16
2023-09-22T01:47:40.326Z,16
2023-09-22T01:53:17.515Z,16
2023-09-22T01:58:52.692Z,16
2023-09-22T02:04:27.993Z,16
2023-09-22T02:10:05.423Z,16
2023-09-22T02:15:40.470Z,16
2023-09-22T02:21:17.716Z,16
2023-09-22T02:26:55.326Z,16
2023-09-22T02:32:31.023Z,16
2023-09-22T02:38:06.889Z,15.9
2023-09-22T02:43:42.455Z,15.9
2023-09-22T02:49:18.404Z,15.9
2023-09-22T02:54:54.211Z,15.8
2023-09-22T03:00:30.282Z,15.8
2023-09-22T03:06:06.213Z,15.8
2023-09-22T03:11:41.603Z,15.7
2023-09-22T03:17:18.079Z,15.7
2023-09-22T03:22:53.373Z,15.6
2023-09-22T03:28:28.313Z,15.6
2023-09-22T03:34:03.840Z,15.5
2023-09-22T03:39:39.665Z,15.5
2023-09-22T03:45:16.014Z,15.4
2023-09-22T03:50:51.454Z,15.4
2023-09-22T03:56:26.765Z,15.4
2023-09-22T04:02:02.091Z,15.4
2023-09-22T04:07:37.597Z,15.4
2023-09-22T04:13:12.782Z,15.4
2023-09-22T04:18:48.307Z,15.5
2023-09-22T04:24:24.490Z,15.4
2023-09-22T04:30:00.726Z,15.4
2023-09-22T04:35:36.368Z,15.4
2023-09-22T04:41:12.197Z,15.4
2023-09-22T04:46:47.568Z,15.4
2023-09-22T04:52:23.359Z,15.4
2023-09-22T04:57:59.523Z,15.3
2023-09-22T05:03:35.586Z,15.2
2023-09-22T05:09:13.092Z,15.2
2023-09-22T05:14:48.528Z,15.1
2023-09-22T05:20:24.366Z,15.1
2023-09-22T05:25:59.848Z,15
2023-09-22T05:31:35.670Z,14.9
2023-09-22T05:37:12.648Z,14.9
2023-09-22T05:42:48.161Z,14.9
2023-09-22T05:48:23.975Z,14.8
2023-09-22T05:53:59.308Z,14.8
2023-09-22T05:59:34.551Z,14.7
2023-09-22T06:05:10.191Z,13.8
2023-09-22T06:10:45.388Z,13.5
2023-09-22T06:16:20.651Z,13.3
2023-09-22T06:21:58.073Z,13.3
2023-09-22T06:27:34.494Z,13.4
2023-09-22T06:33:10.785Z,13.5
2023-09-22T06:38:46.402Z,13.6
2023-09-22T06:44:22.572Z,13.7
2023-09-22T06:49:58.361Z,13.9
2023-09-22T06:55:33.758Z,14.4
2023-09-22T07:01:09.022Z,15.1
2023-09-22T07:06:46.023Z,15.2
2023-09-22T07:12:22.014Z,15.3
2023-09-22T07:17:58.052Z,15.2
2023-09-22T07:23:34.684Z,14.9
2023-09-22T07:29:10.655Z,15.4
2023-09-22T07:34:46.233Z,15.9
2023-09-22T07:40:22.213Z,16.1
2023-09-22T07:45:58.069Z,16
2023-09-22T07:51:35.307Z,16.3
2023-09-22T07:57:11.261Z,16.7
2023-09-22T08:02:47.845Z,16.9
2023-09-22T08:08:24.383Z,17.4
2023-09-22T08:14:00.268Z,17.7
2023-09-22T08:19:36.635Z,17.4
2023-09-22T08:25:12.111Z,17.3
2023-09-22T08:30:49.166Z,18.8
2023-09-22T08:36:25.950Z,18.6
2023-09-22T08:42:01.229Z,19
2023-09-22T08:47:37.038Z,18.3
2023-09-22T08:53:14.382Z,18.4
2023-09-22T08:58:49.549Z,18.3
2023-09-22T09:04:24.725Z,18.4
2023-09-22T09:10:01.139Z,19
2023-09-22T09:15:37.488Z,20.4
2023-09-22T09:21:13.987Z,19.6
2023-09-22T09:26:51.780Z,20.6
2023-09-22T09:32:27.360Z,22
2023-09-22T09:38:03.621Z,20.5
2023-09-22T09:43:40.736Z,20.6
2023-09-22T09:49:17.373Z,21.1
2023-09-22T09:54:54.029Z,20.2
2023-09-22T10:00:31.706Z,21
2023-09-22T10:06:07.873Z,21.6
2023-09-22T10:11:44.413Z,21.4
2023-09-22T10:17:20.758Z,21.5
2023-09-22T10:22:55.932Z,21.1
2023-09-22T10:28:30.724Z,20.2
2023-09-22T10:34:07.554Z,20.5
2023-09-22T10:39:43.285Z,21.6
2023-09-22T10:45:19.292Z,22.3
2023-09-22T10:50:55.955Z,22
2023-09-22T10:56:35.871Z,22.4
2023-09-22T11:02:11.215Z,22.5
2023-09-22T11:07:48.989Z,21
2023-09-22T11:13:25.536Z,19.9
2023-09-22T11:19:01.655Z,20.9
2023-09-22T11:24:37.264Z,21.2
2023-09-22T11:30:12.133Z,20.2
2023-09-22T11:35:51.040Z,19.9
2023-09-22T11:41:34.833Z,19.6
2023-09-22T11:47:14.177Z,19.2
2023-09-22T11:53:00.614Z,19.1
2023-09-22T11:58:36.564Z,19
2023-09-22T12:04:13.926Z,20
2023-09-22T12:09:57.310Z,20.8
2023-09-22T12:15:33.593Z,20.9
2023-09-22T12:21:10.079Z,21.3
2023-09-22T12:26:46.029Z,23.2
2023-09-22T12:32:22.321Z,22.3
2023-09-22T12:37:59.703Z,22.6
2023-09-22T12:43:35.856Z,23
2023-09-22T12:49:12.557Z,22.8
2023-09-22T12:54:48.945Z,22.8
2023-09-22T13:00:24.434Z,23
2023-09-22T13:06:01.407Z,23.2
2023-09-22T13:11:36.856Z,23.9
2023-09-22T13:17:13.319Z,22.7
2023-09-22T13:22:50.675Z,23.3
2023-09-22T13:28:27.868Z,21.3
2023-09-22T13:34:03.770Z,20.3
2023-09-22T13:39:39.685Z,21
2023-09-22T13:45:15.971Z,20.5
2023-09-22T13:50:51.347Z,19.8
2023-09-22T13:56:27.216Z,18.7
2023-09-22T14:02:05.521Z,18.5
2023-09-22T14:07:42.256Z,18.1
2023-09-22T14:13:18.579Z,18
2023-09-22T14:18:54.310Z,17.7
2023-09-22T14:24:29.807Z,19.1
2023-09-22T14:30:05.673Z,20.3
2023-09-22T14:35:40.967Z,20.2
2023-09-22T14:41:16.772Z,17.7
2023-09-22T14:46:52.854Z,17.1
2023-09-22T14:52:30.569Z,16.9
2023-09-22T14:58:06.440Z,16.6
2023-09-22T15:03:42.116Z,16.4
2023-09-22T15:09:18.444Z,16
2023-09-22T15:14:54.310Z,15.8
2023-09-22T15:20:29.892Z,15.9
2023-09-22T15:26:05.060Z,15.8
2023-09-22T15:31:47.018Z,15.6
2023-09-22T15:37:26.564Z,15.6
2023-09-22T15:43:04.623Z,15.8
2023-09-22T15:48:40.499Z,15.9
2023-09-22T15:54:16.321Z,16.1
2023-09-22T15:59:52.324Z,16.2
2023-09-22T16:05:27.249Z,15.8
2023-09-22T16:11:05.120Z,15.7
2023-09-22T16:16:46.606Z,15.6
2023-09-22T16:22:27.025Z,15.4
2023-09-22T16:28:04.019Z,15.3
2023-09-22T16:33:39.037Z,15.3
2023-09-22T16:39:15.195Z,15.4
2023-09-22T16:44:50.861Z,15.7
2023-09-22T16:50:26.831Z,15.9
2023-09-22T16:56:04.126Z,15.9
2023-09-22T17:01:40.465Z,16.1
2023-09-22T17:07:16.937Z,15.7
2023-09-22T17:12:52.974Z,15.4
2023-09-22T17:18:28.918Z,15.2
2023-09-22T17:24:05.101Z,15.3
2023-09-22T17:29:41.310Z,15.2
2023-09-22T17:35:17.013Z,15.2
2023-09-22T17:40:52.429Z,14.9
2023-09-22T17:46:28.484Z,14.7
2023-09-22T17:52:05.288Z,14.3
2023-09-22T17:57:40.637Z,14.2
2023-09-22T18:03:16.037Z,13.9
2023-09-22T18:08:52.922Z,13.9
2023-09-22T18:14:27.937Z,14
2023-09-22T18:20:03.568Z,14
2023-09-22T18:25:40.655Z,14
2023-09-22T18:31:18.165Z,14.1
2023-09-22T18:36:53.988Z,14.1
2023-09-22T18:42:29.702Z,14.1
2023-09-22T18:48:05.274Z,14.2
2023-09-22T18:53:41.173Z,14.2
2023-09-22T18:59:17.012Z,14.6
2023-09-22T19:04:52.218Z,14.9
2023-09-22T19:10:28.056Z,15
2023-09-22T19:16:03.898Z,15.1
2023-09-22T19:21:40.068Z,15.2
2023-09-22T19:27:15.433Z,15.2
2023-09-22T19:32:50.691Z,15.3
2023-09-22T19:38:27.272Z,15.3
2023-09-22T19:44:02.505Z,15.3
2023-09-22T19:49:38.659Z,15.3
2023-09-22T19:55:14.778Z,15.3
2023-09-22T20:00:50.334Z,15.3
2023-09-22T20:06:25.787Z,15.3
2023-09-22T20:12:01.746Z,15.3
2023-09-22T20:17:37.381Z,15.3
2023-09-22T20:23:14.717Z,15.3
2023-09-22T20:28:50.097Z,15.3
2023-09-22T20:34:26.082Z,15.2
2023-09-22T20:40:02.592Z,15.2
2023-09-22T20:45:38.565Z,15.2
2023-09-22T20:51:14.713Z,15.2
2023-09-22T20:56:50.221Z,15.2
2023-09-22T21:02:25.820Z,15.1
2023-09-22T21:08:02.991Z,15.1
2023-09-22T21:13:39.698Z,15.1
2023-09-22T21:19:16.136Z,15.1
2023-09-22T21:24:51.507Z,15.1
2023-09-22T21:30:27.769Z,15.1
2023-09-22T21:36:03.131Z,15.1
2023-09-22T21:41:38.468Z,15
2023-09-22T21:47:14.722Z,15
2023-09-22T21:52:50.332Z,15.1
2023-09-22T21:58:26.187Z,15.1
2023-09-22T22:04:01.846Z,15.1
2023-09-22T22:09:38.118Z,15.1
2023-09-22T22:15:13.033Z,15.1
2023-09-22T22:20:49.251Z,15.1
2023-09-22T22:26:25.014Z,15.1
2023-09-22T22:32:00.383Z,15.1
2023-09-22T22:37:36.822Z,15.1
2023-09-22T22:43:12.558Z,15.2
2023-09-22T22:48:47.789Z,15.1
2023-09-22T22:54:23.899Z,15.1
2023-09-22T22:59:59.088Z,15.1
2023-09-22T23:05:34.845Z,15.1
2023-09-22T23:11:12.197Z,15.1
2023-09-22T23:16:49.088Z,15.1
2023-09-22T23:22:25.589Z,15.1
2023-09-22T23:28:01.739Z,15.1
2023-09-22T23:33:37.733Z,15.1
2023-09-22T23:39:15.406Z,15.1
2023-09-22T23:44:50.920Z,15.1
2023-09-22T23:50:25.953Z,15.1
2023-09-22T23:56:01.186Z,15.1
